Date,TemperatureHighF,TemperatureAvgF,TemperatureLowF,DewpointHighF,DewpointAvgF,DewpointLowF,HumidityHigh,HumidityAvg,HumidityLow,PressureMaxIn,PressureMinIn,WindSpeedMaxMPH,WindSpeedAvgMPH,GustSpeedMaxMPH,PrecipitationSumIn
2013-6-1,87.3,75.1,63.1,67.4,63.8,61.5,96,71,47,30.11,30.00,13,1,13,0.00
2013-6-2,79.6,71.1,65.8,70.8,66.4,63.7,98,86,71,30.07,29.92,11,1,11,1.69
2013-6-3,87.8,70.1,65.9,69.9,66.4,57.7,99,90,37,30.04,29.90,11,0,11,0.02
2013-6-4,75.3,68.4,0.0,66.8,64.4,0.0,98,87,70,30.14,30.02,12,1,12,0.14
2013-6-7,72.0,68.8,66.0,68.5,64.3,61.4,95,86,83,29.78,29.59,2,0,2,0.00
2013-6-8,83.0,71.0,63.0,71.2,64.5,59.7,99,81,56,30.02,29.73,5,0,5,0.00
2013-6-9,88.0,73.0,37.4,73.5,65.8,32.1,100,81,32,30.09,29.88,4,1,4,0.23
2013-6-10,78.8,70.6,33.8,68.2,65.2,32.0,100,84,69,30.00,29.84,13,6,13,0.08
2013-6-11,84.2,73.2,62.6,69.7,62.6,57.0,100,75,40,29.96,29.87,10,3,10,0.05
2013-6-12,91.4,75.5,59.0,73.6,67.3,59.0,100,78,49,29.98,29.87,8,2,8,0.00
2013-6-13,93.2,76.6,64.4,71.7,65.4,59.0,100,72,32,29.87,29.66,14,4,14,0.11
2013-6-14,80.6,70.1,55.4,59.1,53.1,46.3,100,60,30,30.01,29.79,14,6,14,0.00
2013-6-15,84.2,67.9,50.0,66.1,56.8,50.0,100,73,39,30.11,30.01,8,2,8,0.00
2013-6-16,86.0,72.2,59.0,71.4,62.3,58.9,100,75,40,30.09,29.98,10,2,10,0.00
2013-6-17,71.6,68.7,68.0,68.0,66.9,66.1,100,94,83,30.00,29.97,5,1,5,0.04
2013-6-25,86.0,70.6,30.2,71.6,62.9,30.2,100,79,49,30.11,29.97,18,2,18,0.07
2013-6-26,87.8,70.4,30.2,70.0,64.0,30.2,100,83,49,30.01,29.89,9,2,9,0.00
2013-6-27,87.8,73.6,33.8,70.0,65.2,32.0,100,77,52,29.91,29.71,9,3,9,0.00
2013-6-28,89.6,77.6,64.4,70.0,65.8,60.7,100,70,38,29.76,29.59,11,3,11,0.00
2013-6-29,86.0,74.0,33.8,69.8,63.2,32.0,100,73,38,29.68,29.60,10,2,10,0.00
2013-6-30,84.2,73.6,68.0,70.0,67.1,60.6,100,83,45,29.81,29.67,9,2,9,0.12